createdAt,value
2019-03-03T00:01:05.214Z,9.50
2019-03-03T00:06:10.173Z,9.50
2019-03-03T00:11:15.192Z,9.40
2019-03-03T00:16:21.516Z,9.30
2019-03-03T00:21:27.522Z,9.30
2019-03-03T00:26:32.635Z,9.30
2019-03-03T00:31:39.997Z,9.30
2019-03-03T00:37:22.444Z,9.30
2019-03-03T00:42:45.209Z,9.40
2019-03-03T00:48:16.713Z,9.30
2019-03-03T00:53:50.646Z,9.40
2019-03-03T00:59:05.221Z,9.40
2019-03-03T01:04:16.592Z,9.50
2019-03-03T01:09:43.676Z,9.70
2019-03-03T01:15:07.385Z,9.70
2019-03-03T01:20:31.353Z,9.70
2019-03-03T01:25:36.538Z,9.70
2019-03-03T01:30:41.660Z,9.70
2019-03-03T01:35:46.952Z,9.70
2019-03-03T01:40:52.005Z,9.70
2019-03-03T01:45:57.059Z,9.80
2019-03-03T01:51:02.112Z,9.80
2019-03-03T01:56:07.476Z,9.80
2019-03-03T02:01:12.672Z,9.90
2019-03-03T02:06:17.780Z,9.90
2019-03-03T02:11:22.752Z,9.90
2019-03-03T02:16:27.994Z,9.90
2019-03-03T02:21:33.049Z,9.90
2019-03-03T02:26:38.384Z,9.90
2019-03-03T02:31:43.440Z,9.90
2019-03-03T02:36:48.488Z,9.90
2019-03-03T02:41:53.571Z,9.90
2019-03-03T02:46:58.627Z,9.90
2019-03-03T02:52:03.595Z,9.90
2019-03-03T02:57:09.614Z,10.00
2019-03-03T03:02:51.959Z,9.90
2019-03-03T03:08:08.915Z,9.80
2019-03-03T03:13:32.886Z,9.70
2019-03-03T03:18:55.654Z,9.60
2019-03-03T03:24:19.648Z,9.50
2019-03-03T03:29:46.525Z,9.30
2019-03-03T03:35:02.525Z,9.20
2019-03-03T03:40:18.239Z,9.00
2019-03-03T03:45:44.174Z,8.90
2019-03-03T03:51:08.128Z,8.70
2019-03-03T03:56:31.147Z,8.60
2019-03-03T04:01:55.170Z,8.60
2019-03-03T04:07:13.405Z,8.60
2019-03-03T04:12:46.751Z,8.50
2019-03-03T04:18:08.393Z,8.60
2019-03-03T04:23:25.612Z,8.50
2019-03-03T04:28:41.817Z,8.60
2019-03-03T04:33:52.099Z,8.60
2019-03-03T04:39:22.136Z,8.60
2019-03-03T04:44:44.699Z,8.60
2019-03-03T04:49:59.814Z,8.70
2019-03-03T04:55:17.541Z,8.60
2019-03-03T05:00:48.094Z,8.70
2019-03-03T05:06:08.439Z,8.70
2019-03-03T05:11:56.055Z,8.80
2019-03-03T05:17:08.713Z,8.80
2019-03-03T05:22:13.972Z,8.80
2019-03-03T05:27:18.997Z,8.80
2019-03-03T05:32:24.049Z,8.90
2019-03-03T05:37:29.045Z,8.90
2019-03-03T05:42:34.190Z,8.90
2019-03-03T05:47:39.238Z,8.90
2019-03-03T05:52:44.247Z,9.00
2019-03-03T05:57:49.548Z,8.90
2019-03-03T06:02:54.689Z,9.00
2019-03-03T06:07:59.688Z,9.00
2019-03-03T06:13:04.785Z,9.00
2019-03-03T06:18:09.867Z,9.00
2019-03-03T06:23:14.875Z,9.00
2019-03-03T06:28:20.954Z,9.10
2019-03-03T06:33:28.528Z,9.10
2019-03-03T06:38:32.641Z,9.10
2019-03-03T06:43:37.905Z,9.10
2019-03-03T06:48:42.926Z,9.10
2019-03-03T06:53:47.920Z,9.20
2019-03-03T06:58:53.168Z,9.20
2019-03-03T07:03:58.191Z,9.20
2019-03-03T07:09:04.061Z,9.20
2019-03-03T07:14:09.069Z,9.20
2019-03-03T07:19:15.201Z,9.30
2019-03-03T07:24:21.970Z,9.30
2019-03-03T07:29:26.944Z,9.30
2019-03-03T07:34:31.996Z,9.30
2019-03-03T07:39:37.259Z,9.30
2019-03-03T07:44:42.253Z,9.30
2019-03-03T07:49:47.463Z,9.30
2019-03-03T07:54:52.693Z,9.40
2019-03-03T07:59:57.878Z,9.40
2019-03-03T08:05:02.868Z,9.40
2019-03-03T08:10:08.501Z,9.40
2019-03-03T08:15:14.258Z,9.40
2019-03-03T08:20:19.316Z,9.40
2019-03-03T08:25:24.302Z,9.50
2019-03-03T08:30:30.965Z,9.50
2019-03-03T08:35:36.145Z,9.50
2019-03-03T08:40:41.169Z,9.50
2019-03-03T08:45:57.878Z,9.60
2019-03-03T08:51:21.810Z,9.60
2019-03-03T08:56:42.296Z,9.60
2019-03-03T09:02:09.074Z,9.60
2019-03-03T09:07:26.033Z,9.60
2019-03-03T09:12:40.689Z,9.60
2019-03-03T09:18:05.106Z,9.60
2019-03-03T09:23:32.161Z,9.60
2019-03-03T09:28:45.004Z,9.70
2019-03-03T09:34:15.053Z,9.70
2019-03-03T09:39:42.050Z,9.70
2019-03-03T09:45:04.903Z,9.70
2019-03-03T09:50:29.542Z,9.80
2019-03-03T09:55:44.269Z,9.80
2019-03-03T10:01:13.517Z,9.80
2019-03-03T10:06:46.585Z,9.80
2019-03-03T10:12:16.641Z,9.80
2019-03-03T10:17:29.861Z,9.90
2019-03-03T10:22:53.910Z,9.90
2019-03-03T10:28:13.974Z,9.90
2019-03-03T10:33:32.280Z,9.90
2019-03-03T10:38:44.994Z,10.00
2019-03-03T10:44:05.951Z,10.00
2019-03-03T10:49:17.554Z,9.90
2019-03-03T10:54:41.523Z,9.90
2019-03-03T11:00:13.488Z,9.80
2019-03-03T11:05:50.123Z,9.80
2019-03-03T11:11:12.057Z,9.70
2019-03-03T11:16:50.029Z,9.60
2019-03-03T11:22:26.697Z,9.50
2019-03-03T11:27:49.244Z,9.30
2019-03-03T11:33:09.341Z,9.20
2019-03-03T11:38:36.847Z,9.20
2019-03-03T11:43:55.693Z,9.30
2019-03-03T11:49:09.669Z,9.20
2019-03-03T11:54:20.038Z,9.10
2019-03-03T11:59:43.139Z,9.20
2019-03-03T12:05:06.862Z,9.20
2019-03-03T12:10:40.582Z,9.20
2019-03-03T12:16:08.709Z,9.30
2019-03-03T12:21:26.889Z,9.30
2019-03-03T12:26:56.977Z,9.40
2019-03-03T12:32:19.801Z,9.30
2019-03-03T12:37:52.601Z,9.40
2019-03-03T12:43:16.463Z,9.40
2019-03-03T12:48:33.326Z,9.40
2019-03-03T12:53:55.053Z,9.40
2019-03-03T12:59:17.639Z,9.40
2019-03-03T13:04:42.786Z,9.50
2019-03-03T13:10:05.527Z,9.50
2019-03-03T13:15:19.928Z,9.50
2019-03-03T13:20:59.262Z,9.60
2019-03-03T13:26:35.188Z,9.50
2019-03-03T13:32:02.205Z,9.60
2019-03-03T13:37:29.277Z,9.60
2019-03-03T13:42:53.215Z,9.60
2019-03-03T13:48:00.253Z,9.70
2019-03-03T13:53:05.839Z,9.70
2019-03-03T13:58:10.994Z,9.80
2019-03-03T14:03:17.131Z,9.80
2019-03-03T14:08:22.207Z,9.80
2019-03-03T14:13:27.308Z,9.80
2019-03-03T14:18:34.257Z,9.70
2019-03-03T14:23:39.258Z,9.80
2019-03-03T14:28:44.313Z,9.80
2019-03-03T14:33:49.364Z,9.90
2019-03-03T14:38:54.397Z,10.00
2019-03-03T14:43:59.552Z,10.00
2019-03-03T14:49:06.983Z,10.10
2019-03-03T14:54:13.872Z,10.20
2019-03-03T14:59:20.654Z,10.30
2019-03-03T15:04:25.734Z,10.50
2019-03-03T15:09:32.113Z,10.60
2019-03-03T15:14:37.189Z,10.70
2019-03-03T15:19:44.242Z,10.80
2019-03-03T15:24:49.415Z,10.90
2019-03-03T15:29:54.480Z,10.90
2019-03-03T15:34:59.576Z,10.90
2019-03-03T15:40:05.854Z,10.90
2019-03-03T15:45:13.471Z,10.90
2019-03-03T15:50:19.623Z,10.90
2019-03-03T15:55:24.968Z,10.90
2019-03-03T16:00:30.924Z,10.90
2019-03-03T16:05:36.308Z,10.90
2019-03-03T16:10:41.665Z,10.90
2019-03-03T16:15:47.026Z,10.80
2019-03-03T16:20:52.171Z,10.80
2019-03-03T16:25:57.254Z,10.80
2019-03-03T16:31:02.352Z,10.80
2019-03-03T16:36:07.858Z,10.70
2019-03-03T16:41:13.215Z,10.70
2019-03-03T16:46:18.300Z,10.70
2019-03-03T16:51:23.400Z,10.70
2019-03-03T16:56:29.932Z,10.70
2019-03-03T17:01:35.273Z,10.70
2019-03-03T17:06:40.408Z,10.60
2019-03-03T17:11:47.301Z,10.60
2019-03-03T17:16:52.317Z,10.60
2019-03-03T17:21:57.642Z,10.50
2019-03-03T17:27:04.429Z,10.60
2019-03-03T17:32:09.600Z,10.50
2019-03-03T17:37:14.718Z,10.50
2019-03-03T17:42:19.977Z,10.50
2019-03-03T17:47:25.362Z,10.50
2019-03-03T17:52:31.053Z,10.50
2019-03-03T17:57:36.058Z,10.40
2019-03-03T18:02:41.444Z,10.40
2019-03-03T18:07:46.709Z,10.40
2019-03-03T18:12:51.859Z,10.40
2019-03-03T18:17:56.889Z,10.40
2019-03-03T18:23:02.225Z,10.40
2019-03-03T18:32:53.516Z,10.40
2019-03-03T18:37:58.568Z,10.40
2019-03-03T18:43:03.628Z,10.30
2019-03-03T18:48:08.978Z,10.30
2019-03-03T18:53:14.039Z,10.30
2019-03-03T18:58:19.138Z,10.20
2019-03-03T19:03:24.253Z,10.20
2019-03-03T19:08:30.440Z,10.20
2019-03-03T19:13:35.919Z,10.20
2019-03-03T19:18:41.047Z,10.10
2019-03-03T19:23:47.209Z,10.10
2019-03-03T19:28:52.250Z,10.10
2019-03-03T19:33:58.157Z,10.00
2019-03-03T19:39:04.132Z,10.00
2019-03-03T19:44:11.229Z,9.90
2019-03-03T19:49:15.841Z,10.00
2019-03-03T19:54:20.952Z,9.90
2019-03-03T19:59:26.017Z,9.90
2019-03-03T20:04:31.364Z,10.00
2019-03-03T20:09:36.557Z,9.90
2019-03-03T20:14:41.777Z,9.90
2019-03-03T20:19:47.014Z,9.90
2019-03-03T20:24:52.171Z,10.00
2019-03-03T20:29:59.632Z,10.10
2019-03-03T20:35:04.293Z,10.00
2019-03-03T20:40:12.189Z,10.00
2019-03-03T20:45:19.365Z,10.00
2019-03-03T20:50:24.834Z,10.00
2019-03-03T20:55:29.913Z,10.00
2019-03-03T21:00:35.247Z,10.10
2019-03-03T21:05:40.610Z,10.20
2019-03-03T21:10:45.661Z,10.20
2019-03-03T21:15:52.521Z,10.20
2019-03-03T21:20:59.478Z,10.10
2019-03-03T21:26:04.282Z,10.10
2019-03-03T21:31:09.333Z,10.10
2019-03-03T21:36:15.932Z,10.10
2019-03-03T21:41:21.171Z,10.20
2019-03-03T21:46:26.224Z,10.30
2019-03-03T21:51:31.289Z,10.30
2019-03-03T21:56:36.857Z,10.40
2019-03-03T22:01:42.496Z,10.50
2019-03-03T22:06:48.012Z,10.50
2019-03-03T22:11:53.054Z,10.40
2019-03-03T22:16:58.427Z,10.40
2019-03-03T22:22:03.786Z,10.50
2019-03-03T22:27:08.833Z,10.50
2019-03-03T22:32:14.204Z,10.40
2019-03-03T22:37:19.563Z,10.50
2019-03-03T22:42:24.690Z,10.40
2019-03-03T22:47:29.976Z,10.40
2019-03-03T22:52:35.001Z,10.30
2019-03-03T22:57:40.221Z,10.30
2019-03-03T23:02:45.416Z,10.20
2019-03-03T23:08:27.818Z,10.20
2019-03-03T23:14:07.722Z,10.20
2019-03-03T23:19:57.318Z,10.30
2019-03-03T23:25:35.470Z,10.30
2019-03-03T23:30:42.182Z,10.30
2019-03-03T23:35:47.541Z,10.40
2019-03-03T23:40:52.971Z,10.60
2019-03-03T23:46:01.635Z,10.60
2019-03-03T23:51:07.323Z,10.60
2019-03-03T23:56:12.423Z,10.70
